sensor_id;sensor_type;location;lat;lon;timestamp;P1;durP1;ratioP1;P2;durP2;ratioP2
29732;SDS011;16643;43.158;25.302;2023-04-24T00:01:43;11.65;;;5.35;;
29732;SDS011;16643;43.158;25.302;2023-04-24T00:04:08;12.68;;;5.10;;
29732;SDS011;16643;43.158;25.302;2023-04-24T00:06:36;11.20;;;5.60;;
29732;SDS011;16643;43.158;25.302;2023-04-24T00:09:03;8.73;;;4.90;;
29732;SDS011;16643;43.158;25.302;2023-04-24T00:11:30;8.48;;;4.88;;
29732;SDS011;16643;43.158;25.302;2023-04-24T00:13:56;11.05;;;5.00;;
29732;SDS011;16643;43.158;25.302;2023-04-24T00:16:22;9.77;;;5.15;;
29732;SDS011;16643;43.158;25.302;2023-04-24T00:18:48;8.70;;;4.72;;
29732;SDS011;16643;43.158;25.302;2023-04-24T00:21:14;9.23;;;5.25;;
29732;SDS011;16643;43.158;25.302;2023-04-24T00:23:43;7.70;;;4.57;;
29732;SDS011;16643;43.158;25.302;2023-04-24T00:26:09;9.27;;;4.82;;
29732;SDS011;16643;43.158;25.302;2023-04-24T00:28:35;12.07;;;4.55;;
29732;SDS011;16643;43.158;25.302;2023-04-24T00:31:01;9.43;;;5.22;;
29732;SDS011;16643;43.158;25.302;2023-04-24T00:33:27;13.57;;;5.05;;
29732;SDS011;16643;43.158;25.302;2023-04-24T00:35:52;9.90;;;5.00;;
29732;SDS011;16643;43.158;25.302;2023-04-24T00:38:18;11.65;;;4.97;;
29732;SDS011;16643;43.158;25.302;2023-04-24T00:40:44;8.07;;;4.60;;
29732;SDS011;16643;43.158;25.302;2023-04-24T00:43:09;9.73;;;5.05;;
29732;SDS011;16643;43.158;25.302;2023-04-24T00:45:35;10.52;;;4.70;;
29732;SDS011;16643;43.158;25.302;2023-04-24T00:48:01;8.30;;;5.20;;
29732;SDS011;16643;43.158;25.302;2023-04-24T00:50:27;10.65;;;5.93;;
29732;SDS011;16643;43.158;25.302;2023-04-24T00:52:54;10.48;;;5.05;;
29732;SDS011;16643;43.158;25.302;2023-04-24T00:55:20;9.65;;;5.55;;
29732;SDS011;16643;43.158;25.302;2023-04-24T00:57:46;8.43;;;4.43;;
29732;SDS011;16643;43.158;25.302;2023-04-24T01:00:13;10.27;;;4.20;;
29732;SDS011;16643;43.158;25.302;2023-04-24T01:02:40;9.82;;;5.00;;
29732;SDS011;16643;43.158;25.302;2023-04-24T01:05:10;8.32;;;4.68;;
29732;SDS011;16643;43.158;25.302;2023-04-24T01:07:37;11.88;;;5.20;;
29732;SDS011;16643;43.158;25.302;2023-04-24T01:10:04;9.73;;;4.78;;
29732;SDS011;16643;43.158;25.302;2023-04-24T01:12:30;13.18;;;5.82;;
29732;SDS011;16643;43.158;25.302;2023-04-24T01:14:56;8.90;;;4.43;;
29732;SDS011;16643;43.158;25.302;2023-04-24T01:17:22;9.73;;;5.20;;
29732;SDS011;16643;43.158;25.302;2023-04-24T01:19:47;10.95;;;4.93;;
29732;SDS011;16643;43.158;25.302;2023-04-24T01:22:14;8.18;;;5.15;;
29732;SDS011;16643;43.158;25.302;2023-04-24T01:24:41;7.10;;;4.80;;
29732;SDS011;16643;43.158;25.302;2023-04-24T01:27:08;9.20;;;4.43;;
29732;SDS011;16643;43.158;25.302;2023-04-24T01:29:35;8.57;;;3.80;;
29732;SDS011;16643;43.158;25.302;2023-04-24T01:32:02;11.32;;;4.40;;
29732;SDS011;16643;43.158;25.302;2023-04-24T01:34:29;13.85;;;4.63;;
29732;SDS011;16643;43.158;25.302;2023-04-24T01:36:54;9.82;;;5.25;;
29732;SDS011;16643;43.158;25.302;2023-04-24T01:39:21;7.32;;;3.97;;
29732;SDS011;16643;43.158;25.302;2023-04-24T01:41:48;9.68;;;4.38;;
29732;SDS011;16643;43.158;25.302;2023-04-24T01:44:15;8.70;;;4.32;;
29732;SDS011;16643;43.158;25.302;2023-04-24T01:46:41;10.85;;;5.07;;
29732;SDS011;16643;43.158;25.302;2023-04-24T01:49:07;8.38;;;4.53;;
29732;SDS011;16643;43.158;25.302;2023-04-24T01:51:33;9.20;;;4.50;;
29732;SDS011;16643;43.158;25.302;2023-04-24T01:53:58;9.50;;;4.97;;
29732;SDS011;16643;43.158;25.302;2023-04-24T01:56:24;6.75;;;4.57;;
29732;SDS011;16643;43.158;25.302;2023-04-24T01:58:52;6.20;;;3.97;;
29732;SDS011;16643;43.158;25.302;2023-04-24T02:01:20;10.23;;;5.63;;
29732;SDS011;16643;43.158;25.302;2023-04-24T02:03:46;12.05;;;4.68;;
29732;SDS011;16643;43.158;25.302;2023-04-24T02:06:11;7.93;;;4.75;;
29732;SDS011;16643;43.158;25.302;2023-04-24T02:08:37;11.32;;;4.38;;
29732;SDS011;16643;43.158;25.302;2023-04-24T02:11:03;7.78;;;4.10;;
29732;SDS011;16643;43.158;25.302;2023-04-24T02:13:28;10.88;;;4.78;;
29732;SDS011;16643;43.158;25.302;2023-04-24T02:15:54;12.80;;;4.43;;
29732;SDS011;16643;43.158;25.302;2023-04-24T02:18:20;7.50;;;4.68;;
29732;SDS011;16643;43.158;25.302;2023-04-24T02:20:47;10.00;;;4.90;;
29732;SDS011;16643;43.158;25.302;2023-04-24T02:23:13;12.20;;;4.88;;
29732;SDS011;16643;43.158;25.302;2023-04-24T02:25:38;12.60;;;5.00;;
29732;SDS011;16643;43.158;25.302;2023-04-24T02:28:04;6.22;;;4.25;;
29732;SDS011;16643;43.158;25.302;2023-04-24T02:30:29;13.68;;;6.03;;
29732;SDS011;16643;43.158;25.302;2023-04-24T02:32:55;6.50;;;4.32;;
29732;SDS011;16643;43.158;25.302;2023-04-24T02:35:21;11.45;;;5.03;;
29732;SDS011;16643;43.158;25.302;2023-04-24T02:37:46;9.65;;;4.80;;
29732;SDS011;16643;43.158;25.302;2023-04-24T02:40:12;9.27;;;4.60;;
29732;SDS011;16643;43.158;25.302;2023-04-24T02:42:38;13.27;;;4.80;;
29732;SDS011;16643;43.158;25.302;2023-04-24T02:45:03;11.70;;;4.97;;
29732;SDS011;16643;43.158;25.302;2023-04-24T02:47:30;10.05;;;4.65;;
29732;SDS011;16643;43.158;25.302;2023-04-24T02:49:56;6.53;;;4.88;;
29732;SDS011;16643;43.158;25.302;2023-04-24T02:52:21;8.73;;;5.07;;
29732;SDS011;16643;43.158;25.302;2023-04-24T02:54:47;8.15;;;4.60;;
29732;SDS011;16643;43.158;25.302;2023-04-24T02:57:12;10.85;;;5.35;;
29732;SDS011;16643;43.158;25.302;2023-04-24T02:59:38;10.23;;;5.20;;
29732;SDS011;16643;43.158;25.302;2023-04-24T03:02:04;8.73;;;5.50;;
29732;SDS011;16643;43.158;25.302;2023-04-24T03:04:29;7.97;;;4.68;;
29732;SDS011;16643;43.158;25.302;2023-04-24T03:06:55;8.20;;;4.93;;
29732;SDS011;16643;43.158;25.302;2023-04-24T03:09:21;8.10;;;4.45;;
29732;SDS011;16643;43.158;25.302;2023-04-24T03:11:47;10.30;;;4.90;;
29732;SDS011;16643;43.158;25.302;2023-04-24T03:14:13;14.38;;;4.97;;
29732;SDS011;16643;43.158;25.302;2023-04-24T03:16:39;15.55;;;5.13;;
29732;SDS011;16643;43.158;25.302;2023-04-24T03:19:05;7.00;;;5.00;;
29732;SDS011;16643;43.158;25.302;2023-04-24T03:21:30;10.10;;;4.60;;
29732;SDS011;16643;43.158;25.302;2023-04-24T03:23:56;11.02;;;4.65;;
29732;SDS011;16643;43.158;25.302;2023-04-24T03:26:21;9.77;;;5.55;;
29732;SDS011;16643;43.158;25.302;2023-04-24T03:28:47;7.72;;;4.70;;
29732;SDS011;16643;43.158;25.302;2023-04-24T03:31:12;7.20;;;4.75;;
29732;SDS011;16643;43.158;25.302;2023-04-24T03:33:38;14.25;;;5.85;;
29732;SDS011;16643;43.158;25.302;2023-04-24T03:36:04;7.43;;;4.68;;
29732;SDS011;16643;43.158;25.302;2023-04-24T03:38:30;6.07;;;4.32;;
29732;SDS011;16643;43.158;25.302;2023-04-24T03:40:56;15.60;;;5.70;;
29732;SDS011;16643;43.158;25.302;2023-04-24T03:43:21;9.25;;;4.72;;
29732;SDS011;16643;43.158;25.302;2023-04-24T03:45:47;9.55;;;4.38;;
29732;SDS011;16643;43.158;25.302;2023-04-24T03:48:12;13.65;;;7.60;;
29732;SDS011;16643;43.158;25.302;2023-04-24T03:50:38;14.07;;;6.47;;
29732;SDS011;16643;43.158;25.302;2023-04-24T03:53:03;14.13;;;5.40;;
29732;SDS011;16643;43.158;25.302;2023-04-24T03:55:29;7.80;;;5.35;;
29732;SDS011;16643;43.158;25.302;2023-04-24T03:57:55;10.55;;;6.03;;
29732;SDS011;16643;43.158;25.302;2023-04-24T04:00:21;13.38;;;6.68;;
29732;SDS011;16643;43.158;25.302;2023-04-24T04:02:46;11.73;;;5.72;;
29732;SDS011;16643;43.158;25.302;2023-04-24T04:05:12;13.07;;;6.72;;
29732;SDS011;16643;43.158;25.302;2023-04-24T04:07:37;16.75;;;9.48;;
29732;SDS011;16643;43.158;25.302;2023-04-24T04:10:03;14.32;;;8.15;;
29732;SDS011;16643;43.158;25.302;2023-04-24T04:12:29;16.50;;;11.73;;
29732;SDS011;16643;43.158;25.302;2023-04-24T04:14:55;16.70;;;10.45;;
29732;SDS011;16643;43.158;25.302;2023-04-24T04:17:20;16.20;;;8.15;;
29732;SDS011;16643;43.158;25.302;2023-04-24T04:19:46;8.38;;;5.65;;
29732;SDS011;16643;43.158;25.302;2023-04-24T04:22:11;8.98;;;5.70;;
29732;SDS011;16643;43.158;25.302;2023-04-24T04:24:37;9.18;;;5.65;;
29732;SDS011;16643;43.158;25.302;2023-04-24T04:27:05;11.27;;;6.05;;
29732;SDS011;16643;43.158;25.302;2023-04-24T04:29:31;10.88;;;6.50;;
29732;SDS011;16643;43.158;25.302;2023-04-24T04:31:58;15.35;;;6.55;;
29732;SDS011;16643;43.158;25.302;2023-04-24T04:34:23;10.27;;;6.63;;
29732;SDS011;16643;43.158;25.302;2023-04-24T04:36:49;10.80;;;5.72;;
29732;SDS011;16643;43.158;25.302;2023-04-24T04:39:15;8.48;;;5.95;;
29732;SDS011;16643;43.158;25.302;2023-04-24T04:41:41;12.60;;;6.05;;
29732;SDS011;16643;43.158;25.302;2023-04-24T04:44:07;14.05;;;6.07;;
29732;SDS011;16643;43.158;25.302;2023-04-24T04:46:34;10.18;;;6.28;;
29732;SDS011;16643;43.158;25.302;2023-04-24T04:49:01;10.90;;;6.47;;
29732;SDS011;16643;43.158;25.302;2023-04-24T04:51:27;14.55;;;6.65;;
29732;SDS011;16643;43.158;25.302;2023-04-24T04:53:53;11.30;;;6.28;;
29732;SDS011;16643;43.158;25.302;2023-04-24T04:56:18;8.95;;;5.47;;
29732;SDS011;16643;43.158;25.302;2023-04-24T04:58:44;11.18;;;6.47;;
29732;SDS011;16643;43.158;25.302;2023-04-24T05:01:10;8.65;;;6.18;;
29732;SDS011;16643;43.158;25.302;2023-04-24T05:03:35;9.30;;;5.88;;
29732;SDS011;16643;43.158;25.302;2023-04-24T05:06:01;11.00;;;5.68;;
29732;SDS011;16643;43.158;25.302;2023-04-24T05:08:27;9.38;;;6.15;;
29732;SDS011;16643;43.158;25.302;2023-04-24T05:10:53;12.63;;;5.75;;
29732;SDS011;16643;43.158;25.302;2023-04-24T05:13:19;9.77;;;6.45;;
29732;SDS011;16643;43.158;25.302;2023-04-24T05:15:45;7.47;;;5.25;;
29732;SDS011;16643;43.158;25.302;2023-04-24T05:18:11;8.65;;;4.97;;
29732;SDS011;16643;43.158;25.302;2023-04-24T05:20:36;6.65;;;4.85;;
29732;SDS011;16643;43.158;25.302;2023-04-24T05:23:02;9.88;;;5.40;;
29732;SDS011;16643;43.158;25.302;2023-04-24T05:25:27;7.80;;;4.95;;
29732;SDS011;16643;43.158;25.302;2023-04-24T05:27:53;6.22;;;3.97;;
29732;SDS011;16643;43.158;25.302;2023-04-24T05:30:19;10.65;;;4.63;;
29732;SDS011;16643;43.158;25.302;2023-04-24T05:32:45;10.30;;;5.03;;
29732;SDS011;16643;43.158;25.302;2023-04-24T05:35:11;6.75;;;4.32;;
29732;SDS011;16643;43.158;25.302;2023-04-24T05:37:37;6.00;;;4.32;;
29732;SDS011;16643;43.158;25.302;2023-04-24T05:40:02;7.72;;;4.75;;
29732;SDS011;16643;43.158;25.302;2023-04-24T05:42:30;8.23;;;4.97;;
29732;SDS011;16643;43.158;25.302;2023-04-24T05:44:56;8.70;;;5.28;;
29732;SDS011;16643;43.158;25.302;2023-04-24T05:47:22;7.80;;;5.20;;
29732;SDS011;16643;43.158;25.302;2023-04-24T05:49:48;8.32;;;5.50;;
29732;SDS011;16643;43.158;25.302;2023-04-24T05:52:13;8.70;;;4.72;;
29732;SDS011;16643;43.158;25.302;2023-04-24T05:54:39;9.80;;;5.35;;
29732;SDS011;16643;43.158;25.302;2023-04-24T05:57:04;9.02;;;5.47;;
29732;SDS011;16643;43.158;25.302;2023-04-24T05:59:33;9.52;;;5.90;;
29732;SDS011;16643;43.158;25.302;2023-04-24T06:02:00;9.90;;;6.60;;
29732;SDS011;16643;43.158;25.302;2023-04-24T06:04:26;10.45;;;6.32;;
29732;SDS011;16643;43.158;25.302;2023-04-24T06:06:51;16.02;;;8.05;;
29732;SDS011;16643;43.158;25.302;2023-04-24T06:09:21;12.68;;;6.38;;
29732;SDS011;16643;43.158;25.302;2023-04-24T06:11:47;9.15;;;5.35;;
29732;SDS011;16643;43.158;25.302;2023-04-24T06:14:13;7.95;;;4.70;;
29732;SDS011;16643;43.158;25.302;2023-04-24T06:16:40;6.15;;;4.35;;
29732;SDS011;16643;43.158;25.302;2023-04-24T06:19:07;7.18;;;4.68;;
29732;SDS011;16643;43.158;25.302;2023-04-24T06:21:32;6.50;;;3.88;;
29732;SDS011;16643;43.158;25.302;2023-04-24T06:23:58;6.32;;;3.70;;
29732;SDS011;16643;43.158;25.302;2023-04-24T06:26:24;6.25;;;4.15;;
29732;SDS011;16643;43.158;25.302;2023-04-24T06:28:52;7.18;;;3.70;;
29732;SDS011;16643;43.158;25.302;2023-04-24T06:31:23;7.95;;;5.57;;
29732;SDS011;16643;43.158;25.302;2023-04-24T06:33:49;7.68;;;4.63;;
29732;SDS011;16643;43.158;25.302;2023-04-24T06:36:15;6.88;;;4.43;;
29732;SDS011;16643;43.158;25.302;2023-04-24T06:38:41;9.07;;;4.93;;
29732;SDS011;16643;43.158;25.302;2023-04-24T06:41:07;7.50;;;5.00;;
29732;SDS011;16643;43.158;25.302;2023-04-24T06:43:33;9.38;;;4.47;;
29732;SDS011;16643;43.158;25.302;2023-04-24T06:45:59;7.15;;;4.45;;
29732;SDS011;16643;43.158;25.302;2023-04-24T06:48:25;7.57;;;4.45;;
29732;SDS011;16643;43.158;25.302;2023-04-24T06:50:51;6.35;;;4.75;;
29732;SDS011;16643;43.158;25.302;2023-04-24T06:53:17;9.73;;;4.75;;
29732;SDS011;16643;43.158;25.302;2023-04-24T06:55:43;9.93;;;5.03;;
29732;SDS011;16643;43.158;25.302;2023-04-24T06:58:12;8.35;;;5.00;;
29732;SDS011;16643;43.158;25.302;2023-04-24T07:00:38;5.70;;;4.13;;
29732;SDS011;16643;43.158;25.302;2023-04-24T07:03:03;7.57;;;4.82;;
29732;SDS011;16643;43.158;25.302;2023-04-24T07:05:32;6.20;;;4.10;;
29732;SDS011;16643;43.158;25.302;2023-04-24T07:10:26;7.63;;;4.68;;
29732;SDS011;16643;43.158;25.302;2023-04-24T07:12:53;5.70;;;4.32;;
29732;SDS011;16643;43.158;25.302;2023-04-24T07:15:19;8.63;;;4.65;;
29732;SDS011;16643;43.158;25.302;2023-04-24T07:17:45;8.18;;;4.70;;
29732;SDS011;16643;43.158;25.302;2023-04-24T07:20:11;9.07;;;5.07;;
29732;SDS011;16643;43.158;25.302;2023-04-24T07:22:39;8.07;;;4.25;;
29732;SDS011;16643;43.158;25.302;2023-04-24T07:25:06;7.80;;;4.82;;
29732;SDS011;16643;43.158;25.302;2023-04-24T07:27:32;6.93;;;4.45;;
29732;SDS011;16643;43.158;25.302;2023-04-24T07:29:59;6.95;;;4.47;;
29732;SDS011;16643;43.158;25.302;2023-04-24T07:32:25;13.05;;;5.15;;
29732;SDS011;16643;43.158;25.302;2023-04-24T07:34:51;9.93;;;4.82;;
29732;SDS011;16643;43.158;25.302;2023-04-24T07:37:17;7.53;;;4.57;;
29732;SDS011;16643;43.158;25.302;2023-04-24T07:39:42;9.35;;;4.70;;
29732;SDS011;16643;43.158;25.302;2023-04-24T07:42:08;6.65;;;4.65;;
29732;SDS011;16643;43.158;25.302;2023-04-24T07:44:34;7.25;;;4.60;;
29732;SDS011;16643;43.158;25.302;2023-04-24T07:47:01;9.77;;;4.32;;
29732;SDS011;16643;43.158;25.302;2023-04-24T07:49:26;5.47;;;4.60;;
29732;SDS011;16643;43.158;25.302;2023-04-24T07:51:53;6.10;;;4.40;;
29732;SDS011;16643;43.158;25.302;2023-04-24T07:54:18;5.50;;;3.97;;
29732;SDS011;16643;43.158;25.302;2023-04-24T07:56:44;7.47;;;4.97;;
29732;SDS011;16643;43.158;25.302;2023-04-24T07:59:10;12.63;;;6.32;;
29732;SDS011;16643;43.158;25.302;2023-04-24T08:01:36;8.38;;;5.68;;
29732;SDS011;16643;43.158;25.302;2023-04-24T08:04:01;11.63;;;5.53;;
29732;SDS011;16643;43.158;25.302;2023-04-24T08:06:27;9.73;;;5.97;;
29732;SDS011;16643;43.158;25.302;2023-04-24T08:08:58;10.57;;;5.40;;
29732;SDS011;16643;43.158;25.302;2023-04-24T08:11:24;10.52;;;5.88;;
29732;SDS011;16643;43.158;25.302;2023-04-24T08:13:51;7.82;;;5.63;;
29732;SDS011;16643;43.158;25.302;2023-04-24T08:16:16;7.70;;;6.30;;
29732;SDS011;16643;43.158;25.302;2023-04-24T08:18:42;12.25;;;6.85;;
29732;SDS011;16643;43.158;25.302;2023-04-24T08:21:08;9.68;;;6.25;;
29732;SDS011;16643;43.158;25.302;2023-04-24T08:23:33;8.30;;;6.60;;
29732;SDS011;16643;43.158;25.302;2023-04-24T08:25:59;13.70;;;7.50;;
29732;SDS011;16643;43.158;25.302;2023-04-24T08:28:25;6.93;;;5.03;;
29732;SDS011;16643;43.158;25.302;2023-04-24T08:30:50;8.95;;;5.07;;
29732;SDS011;16643;43.158;25.302;2023-04-24T08:33:22;8.23;;;4.57;;
29732;SDS011;16643;43.158;25.302;2023-04-24T08:35:48;8.75;;;5.13;;
29732;SDS011;16643;43.158;25.302;2023-04-24T08:38:15;4.35;;;3.90;;
29732;SDS011;16643;43.158;25.302;2023-04-24T08:40:41;6.18;;;5.00;;
29732;SDS011;16643;43.158;25.302;2023-04-24T08:43:07;7.38;;;4.65;;
29732;SDS011;16643;43.158;25.302;2023-04-24T08:45:33;5.50;;;4.13;;
29732;SDS011;16643;43.158;25.302;2023-04-24T08:47:59;5.95;;;4.25;;
29732;SDS011;16643;43.158;25.302;2023-04-24T08:50:25;6.10;;;4.22;;
29732;SDS011;16643;43.158;25.302;2023-04-24T08:52:51;4.57;;;3.65;;
29732;SDS011;16643;43.158;25.302;2023-04-24T08:55:22;4.50;;;4.07;;
29732;SDS011;16643;43.158;25.302;2023-04-24T09:00:17;10.80;;;4.80;;
29732;SDS011;16643;43.158;25.302;2023-04-24T09:02:44;5.38;;;4.57;;
29732;SDS011;16643;43.158;25.302;2023-04-24T09:05:13;5.93;;;4.63;;
29732;SDS011;16643;43.158;25.302;2023-04-24T09:07:41;7.38;;;4.55;;
29732;SDS011;16643;43.158;25.302;2023-04-24T09:10:11;5.05;;;4.38;;
29732;SDS011;16643;43.158;25.302;2023-04-24T09:12:37;7.00;;;4.57;;
29732;SDS011;16643;43.158;25.302;2023-04-24T09:15:03;5.97;;;4.30;;
29732;SDS011;16643;43.158;25.302;2023-04-24T09:17:30;8.68;;;4.78;;
29732;SDS011;16643;43.158;25.302;2023-04-24T09:19:56;7.28;;;4.80;;
29732;SDS011;16643;43.158;25.302;2023-04-24T09:22:22;7.15;;;4.47;;
29732;SDS011;16643;43.158;25.302;2023-04-24T09:24:47;6.43;;;4.55;;
29732;SDS011;16643;43.158;25.302;2023-04-24T09:27:13;7.75;;;4.05;;
29732;SDS011;16643;43.158;25.302;2023-04-24T09:32:19;4.18;;;3.42;;
29732;SDS011;16643;43.158;25.302;2023-04-24T09:37:23;6.22;;;4.45;;
29732;SDS011;16643;43.158;25.302;2023-04-24T09:40:12;6.60;;;3.97;;
29732;SDS011;16643;43.158;25.302;2023-04-24T09:42:55;6.50;;;4.10;;
29732;SDS011;16643;43.158;25.302;2023-04-24T09:45:35;4.88;;;3.45;;
29732;SDS011;16643;43.158;25.302;2023-04-24T09:48:02;7.68;;;3.97;;
29732;SDS011;16643;43.158;25.302;2023-04-24T09:50:29;5.20;;;3.72;;
29732;SDS011;16643;43.158;25.302;2023-04-24T09:53:01;6.65;;;4.43;;
29732;SDS011;16643;43.158;25.302;2023-04-24T09:55:28;7.90;;;4.55;;
29732;SDS011;16643;43.158;25.302;2023-04-24T09:57:57;6.80;;;4.72;;
29732;SDS011;16643;43.158;25.302;2023-04-24T10:00:31;3.88;;;3.47;;
29732;SDS011;16643;43.158;25.302;2023-04-24T10:03:01;4.95;;;4.47;;
29732;SDS011;16643;43.158;25.302;2023-04-24T10:05:32;6.60;;;3.90;;
29732;SDS011;16643;43.158;25.302;2023-04-24T10:08:06;5.90;;;4.28;;
29732;SDS011;16643;43.158;25.302;2023-04-24T10:10:38;6.35;;;3.97;;
29732;SDS011;16643;43.158;25.302;2023-04-24T10:13:12;6.47;;;3.85;;
29732;SDS011;16643;43.158;25.302;2023-04-24T10:15:40;6.72;;;3.92;;
29732;SDS011;16643;43.158;25.302;2023-04-24T10:18:06;8.77;;;4.60;;
29732;SDS011;16643;43.158;25.302;2023-04-24T10:20:34;5.60;;;4.37;;
29732;SDS011;16643;43.158;25.302;2023-04-24T10:23:01;6.35;;;3.88;;
29732;SDS011;16643;43.158;25.302;2023-04-24T10:25:27;9.18;;;4.50;;
29732;SDS011;16643;43.158;25.302;2023-04-24T10:27:55;5.50;;;3.85;;
29732;SDS011;16643;43.158;25.302;2023-04-24T10:30:23;5.07;;;4.07;;
29732;SDS011;16643;43.158;25.302;2023-04-24T10:32:49;10.73;;;4.32;;
29732;SDS011;16643;43.158;25.302;2023-04-24T10:35:15;7.38;;;4.35;;
29732;SDS011;16643;43.158;25.302;2023-04-24T10:37:49;6.53;;;4.00;;
29732;SDS011;16643;43.158;25.302;2023-04-24T10:42:51;4.93;;;4.43;;
29732;SDS011;16643;43.158;25.302;2023-04-24T10:45:21;8.07;;;4.60;;
29732;SDS011;16643;43.158;25.302;2023-04-24T10:48:20;4.65;;;4.15;;
29732;SDS011;16643;43.158;25.302;2023-04-24T10:50:44;7.88;;;4.63;;
29732;SDS011;16643;43.158;25.302;2023-04-24T10:53:19;6.68;;;4.05;;
29732;SDS011;16643;43.158;25.302;2023-04-24T10:55:51;5.85;;;4.60;;
29732;SDS011;16643;43.158;25.302;2023-04-24T10:58:42;4.88;;;4.38;;
29732;SDS011;16643;43.158;25.302;2023-04-24T11:01:28;7.65;;;3.83;;
29732;SDS011;16643;43.158;25.302;2023-04-24T11:03:55;5.20;;;3.88;;
29732;SDS011;16643;43.158;25.302;2023-04-24T11:06:35;4.53;;;3.88;;
29732;SDS011;16643;43.158;25.302;2023-04-24T11:09:05;4.90;;;3.88;;
29732;SDS011;16643;43.158;25.302;2023-04-24T11:11:37;5.47;;;4.28;;
29732;SDS011;16643;43.158;25.302;2023-04-24T11:14:09;5.00;;;3.67;;
29732;SDS011;16643;43.158;25.302;2023-04-24T11:16:37;6.38;;;4.70;;
29732;SDS011;16643;43.158;25.302;2023-04-24T11:19:17;6.05;;;4.43;;
29732;SDS011;16643;43.158;25.302;2023-04-24T11:22:03;7.53;;;4.47;;
29732;SDS011;16643;43.158;25.302;2023-04-24T11:24:39;7.72;;;4.22;;
29732;SDS011;16643;43.158;25.302;2023-04-24T11:27:17;6.65;;;4.22;;
29732;SDS011;16643;43.158;25.302;2023-04-24T11:34:51;5.55;;;4.97;;
29732;SDS011;16643;43.158;25.302;2023-04-24T11:37:22;7.05;;;4.80;;
29732;SDS011;16643;43.158;25.302;2023-04-24T11:39:58;7.75;;;5.65;;
29732;SDS011;16643;43.158;25.302;2023-04-24T11:42:23;7.80;;;5.07;;
29732;SDS011;16643;43.158;25.302;2023-04-24T11:44:53;6.10;;;4.32;;
29732;SDS011;16643;43.158;25.302;2023-04-24T11:47:29;7.25;;;4.63;;
29732;SDS011;16643;43.158;25.302;2023-04-24T11:49:55;5.47;;;4.63;;
29732;SDS011;16643;43.158;25.302;2023-04-24T11:52:21;6.22;;;4.32;;
29732;SDS011;16643;43.158;25.302;2023-04-24T11:54:47;5.25;;;3.97;;
29732;SDS011;16643;43.158;25.302;2023-04-24T11:57:14;7.53;;;4.65;;
29732;SDS011;16643;43.158;25.302;2023-04-24T11:59:40;5.05;;;4.10;;
29732;SDS011;16643;43.158;25.302;2023-04-24T12:02:05;7.18;;;4.28;;
29732;SDS011;16643;43.158;25.302;2023-04-24T12:04:38;6.35;;;4.65;;
29732;SDS011;16643;43.158;25.302;2023-04-24T12:07:06;6.05;;;5.00;;
29732;SDS011;16643;43.158;25.302;2023-04-24T12:12:28;5.35;;;4.85;;
29732;SDS011;16643;43.158;25.302;2023-04-24T12:14:55;8.77;;;4.80;;
29732;SDS011;16643;43.158;25.302;2023-04-24T12:17:28;6.07;;;5.28;;
29732;SDS011;16643;43.158;25.302;2023-04-24T12:19:59;6.43;;;4.28;;
29732;SDS011;16643;43.158;25.302;2023-04-24T12:22:26;9.38;;;4.70;;
29732;SDS011;16643;43.158;25.302;2023-04-24T12:25:10;8.00;;;4.90;;
29732;SDS011;16643;43.158;25.302;2023-04-24T12:27:36;5.97;;;4.60;;
29732;SDS011;16643;43.158;25.302;2023-04-24T12:30:03;5.90;;;4.55;;
29732;SDS011;16643;43.158;25.302;2023-04-24T12:32:30;5.47;;;4.30;;
29732;SDS011;16643;43.158;25.302;2023-04-24T12:34:58;6.43;;;4.57;;
29732;SDS011;16643;43.158;25.302;2023-04-24T12:37:24;6.72;;;4.53;;
29732;SDS011;16643;43.158;25.302;2023-04-24T12:42:33;6.65;;;4.68;;
29732;SDS011;16643;43.158;25.302;2023-04-24T12:45:01;7.57;;;4.27;;
29732;SDS011;16643;43.158;25.302;2023-04-24T12:47:29;7.38;;;5.13;;
29732;SDS011;16643;43.158;25.302;2023-04-24T12:49:55;5.60;;;4.05;;
29732;SDS011;16643;43.158;25.302;2023-04-24T12:52:22;8.18;;;4.68;;
29732;SDS011;16643;43.158;25.302;2023-04-24T12:54:49;4.63;;;3.67;;
29732;SDS011;16643;43.158;25.302;2023-04-24T12:57:17;5.40;;;3.70;;
29732;SDS011;16643;43.158;25.302;2023-04-24T12:59:43;5.73;;;4.93;;
29732;SDS011;16643;43.158;25.302;2023-04-24T13:02:09;7.13;;;4.55;;
29732;SDS011;16643;43.158;25.302;2023-04-24T13:04:35;6.25;;;4.30;;
29732;SDS011;16643;43.158;25.302;2023-04-24T13:07:01;6.28;;;4.43;;
29732;SDS011;16643;43.158;25.302;2023-04-24T13:09:27;5.90;;;4.28;;
29732;SDS011;16643;43.158;25.302;2023-04-24T13:11:54;6.05;;;4.50;;
29732;SDS011;16643;43.158;25.302;2023-04-24T13:14:21;6.32;;;3.85;;
29732;SDS011;16643;43.158;25.302;2023-04-24T13:16:47;6.40;;;4.68;;
29732;SDS011;16643;43.158;25.302;2023-04-24T13:19:13;5.50;;;3.95;;
29732;SDS011;16643;43.158;25.302;2023-04-24T13:21:39;6.75;;;4.25;;
29732;SDS011;16643;43.158;25.302;2023-04-24T13:24:04;8.68;;;4.53;;
29732;SDS011;16643;43.158;25.302;2023-04-24T13:26:30;6.90;;;4.18;;
29732;SDS011;16643;43.158;25.302;2023-04-24T13:28:56;5.28;;;4.07;;
29732;SDS011;16643;43.158;25.302;2023-04-24T13:31:21;4.60;;;4.13;;
29732;SDS011;16643;43.158;25.302;2023-04-24T13:33:47;6.07;;;4.35;;
29732;SDS011;16643;43.158;25.302;2023-04-24T13:36:13;5.53;;;4.10;;
29732;SDS011;16643;43.158;25.302;2023-04-24T13:38:38;8.30;;;4.25;;
29732;SDS011;16643;43.158;25.302;2023-04-24T13:41:04;4.97;;;4.15;;
29732;SDS011;16643;43.158;25.302;2023-04-24T13:43:30;7.13;;;3.85;;
29732;SDS011;16643;43.158;25.302;2023-04-24T13:45:56;5.38;;;4.20;;
29732;SDS011;16643;43.158;25.302;2023-04-24T13:48:21;5.97;;;4.40;;
29732;SDS011;16643;43.158;25.302;2023-04-24T13:50:47;8.45;;;4.93;;
29732;SDS011;16643;43.158;25.302;2023-04-24T13:53:14;6.07;;;4.47;;
29732;SDS011;16643;43.158;25.302;2023-04-24T13:55:40;8.02;;;4.88;;
29732;SDS011;16643;43.158;25.302;2023-04-24T13:58:06;6.00;;;4.53;;
29732;SDS011;16643;43.158;25.302;2023-04-24T14:00:32;5.30;;;4.55;;
29732;SDS011;16643;43.158;25.302;2023-04-24T14:02:58;5.45;;;4.00;;
29732;SDS011;16643;43.158;25.302;2023-04-24T14:05:24;6.95;;;4.07;;
29732;SDS011;16643;43.158;25.302;2023-04-24T14:07:50;7.03;;;4.65;;
29732;SDS011;16643;43.158;25.302;2023-04-24T14:10:16;6.35;;;4.15;;
29732;SDS011;16643;43.158;25.302;2023-04-24T14:12:41;3.95;;;3.55;;
29732;SDS011;16643;43.158;25.302;2023-04-24T14:15:07;5.07;;;3.95;;
29732;SDS011;16643;43.158;25.302;2023-04-24T14:17:34;7.68;;;4.20;;
29732;SDS011;16643;43.158;25.302;2023-04-24T14:19:59;6.53;;;4.00;;
29732;SDS011;16643;43.158;25.302;2023-04-24T14:22:25;5.03;;;3.00;;
29732;SDS011;16643;43.158;25.302;2023-04-24T14:24:51;5.47;;;4.45;;
29732;SDS011;16643;43.158;25.302;2023-04-24T14:27:17;4.88;;;3.80;;
29732;SDS011;16643;43.158;25.302;2023-04-24T14:29:42;4.93;;;3.70;;
29732;SDS011;16643;43.158;25.302;2023-04-24T14:32:10;4.65;;;3.50;;
29732;SDS011;16643;43.158;25.302;2023-04-24T14:34:36;5.00;;;4.07;;
29732;SDS011;16643;43.158;25.302;2023-04-24T14:37:01;4.55;;;3.55;;
29732;SDS011;16643;43.158;25.302;2023-04-24T14:39:28;10.18;;;4.07;;
29732;SDS011;16643;43.158;25.302;2023-04-24T14:41:54;6.05;;;3.97;;
29732;SDS011;16643;43.158;25.302;2023-04-24T14:44:20;5.40;;;3.90;;
29732;SDS011;16643;43.158;25.302;2023-04-24T14:46:45;7.85;;;4.90;;
29732;SDS011;16643;43.158;25.302;2023-04-24T14:49:11;6.22;;;4.00;;
29732;SDS011;16643;43.158;25.302;2023-04-24T14:51:37;6.28;;;4.47;;
29732;SDS011;16643;43.158;25.302;2023-04-24T14:54:03;6.85;;;4.15;;